Time;durP1;ratioP1;P1;durP2;ratioP2;P2;SDS_P1;SDS_P2;PMS_P1;PMS_P2;Temp;Humidity;BMP_temperature;BMP_pressure;BME280_temperature;BME280_humidity;BME280_pressure;Samples;Min_cycle;Max_cycle;Signal;HPM_P1;HPM_P2
2022/05/23 00:02:42;;;;;;;9.45;6.08;;;;;;;8.85;65.64;100127.12;2083761;85;33762;-63
2022/05/23 00:05:44;;;;;;;7.90;5.67;;;;;;;8.79;65.72;100130.05;2084127;85;30125;-65
2022/05/23 00:08:49;;;;;;;7.05;5.35;;;;;;;8.76;65.80;100131.55;2083522;85;27799;-65
2022/05/23 00:11:52;;;;;;;6.62;5.62;;;;;;;8.71;65.88;100132.22;2083935;85;28667;-63
2022/05/23 00:14:55;;;;;;;9.60;6.60;;;;;;;8.67;66.01;100135.50;2083471;85;32239;-64
2022/05/23 00:17:56;;;;;;;10.25;5.47;;;;;;;8.62;65.97;100137.02;2083620;85;33017;-63
2022/05/23 00:20:58;;;;;;;9.00;5.90;;;;;;;8.58;66.15;100131.44;2083407;85;29918;-63
2022/05/23 00:24:00;;;;;;;6.17;5.37;;;;;;;8.52;66.10;100125.02;2083074;85;28174;-64
2022/05/23 00:27:03;;;;;;;6.20;5.25;;;;;;;8.46;66.02;100126.13;2083239;85;29165;-63
2022/05/23 00:30:09;;;;;;;7.78;5.87;;;;;;;8.42;66.10;100123.67;2082929;85;31939;-62
2022/05/23 00:36:34;;;;;;;6.15;5.50;;;;;;;8.31;66.24;100130.80;2082912;85;31466;-64
2022/05/23 00:39:36;;;;;;;8.00;5.65;;;;;;;8.25;66.40;100124.38;2083493;85;27618;-62
2022/05/23 00:46:07;;;;;;;8.48;6.08;;;;;;;8.15;66.66;100122.56;2082996;85;32270;-63
2022/05/23 00:49:09;;;;;;;6.22;5.42;;;;;;;8.12;66.85;100126.24;2083211;85;33055;-63
2022/05/23 00:52:22;;;;;;;7.83;6.22;;;;;;;8.08;66.97;100123.78;2083469;85;29420;-63
2022/05/23 00:55:32;;;;;;;9.00;6.58;;;;;;;8.05;67.04;100127.42;2083797;85;27895;-63
2022/05/23 00:58:46;;;;;;;7.17;5.75;;;;;;;8.00;67.29;100123.62;2083570;85;28646;-62
2022/05/23 01:01:48;;;;;;;7.60;5.40;;;;;;;7.96;67.43;100117.15;2082324;85;32254;-63
2022/05/23 01:04:51;;;;;;;9.38;6.20;;;;;;;7.90;67.37;100117.80;2083265;85;34167;-62
2022/05/23 01:07:53;;;;;;;12.50;6.10;;;;;;;7.88;67.45;100118.80;2083780;85;30220;-62
2022/05/23 01:10:55;;;;;;;9.85;6.20;;;;;;;7.84;67.70;100118.52;2083952;85;27671;-62
2022/05/23 01:13:56;;;;;;;7.75;6.20;;;;;;;7.79;67.75;100113.83;2083809;85;29221;-63
2022/05/23 01:16:59;;;;;;;12.70;7.17;;;;;;;7.75;67.83;100113.98;2083288;85;32251;-62
2022/05/23 01:20:01;;;;;;;10.85;6.30;;;;;;;7.72;67.97;100114.11;2083478;85;33656;-62
2022/05/23 01:23:29;;;;;;;11.18;6.85;;;;;;;7.68;68.00;100120.48;2083003;85;29760;-63
2022/05/23 01:26:32;;;;;;;9.73;7.30;;;;;;;7.66;68.20;100117.01;2083527;85;27601;-64
2022/05/23 01:29:35;;;;;;;9.70;7.10;;;;;;;7.62;68.25;100119.39;2082973;84;28673;-63
2022/05/23 01:32:38;;;;;;;9.33;6.83;;;;;;;7.58;68.25;100114.66;2083301;85;31460;-62
2022/05/23 01:35:40;;;;;;;10.85;7.35;;;;;;;7.56;68.27;100116.98;2083524;85;32882;-62
2022/05/23 01:38:43;;;;;;;8.85;7.22;;;;;;;7.52;68.56;100114.92;2083366;85;30451;-62
2022/05/23 01:41:45;;;;;;;7.85;6.60;;;;;;;7.48;68.61;100111.08;2083396;85;27659;-62
2022/05/23 01:44:46;;;;;;;10.28;7.10;;;;;;;7.45;68.66;100109.41;2083531;85;29848;-62
2022/05/23 01:47:48;;;;;;;9.13;6.97;;;;;;;7.44;68.77;100102.34;2083479;85;32157;-64
2022/05/23 01:50:50;;;;;;;8.85;6.65;;;;;;;7.42;68.83;100098.87;2083474;85;32740;-63
2022/05/23 01:53:52;;;;;;;10.70;6.78;;;;;;;7.40;68.83;100091.40;2083810;85;29461;-62
2022/05/23 01:56:53;;;;;;;12.53;7.17;;;;;;;7.37;68.74;100086.18;2083870;85;28245;-63
2022/05/23 02:03:16;;;;;;;10.60;6.80;;;;;;;7.33;68.86;100100.10;2083675;85;32168;-62
2022/05/23 02:06:19;;;;;;;9.73;7.00;;;;;;;7.30;68.93;100099.77;2083757;85;33795;-63
2022/05/23 02:09:26;;;;;;;9.10;6.85;;;;;;;7.27;69.01;100095.89;2083896;85;29661;-63
2022/05/23 02:12:24;;;;;;;14.53;7.33;;;;;;;7.27;69.09;100096.37;2083534;85;27652;-62
2022/05/23 02:15:28;;;;;;;12.55;7.58;;;;;;;7.23;69.08;100096.93;2083923;85;29286;-62
2022/05/23 02:18:30;;;;;;;13.70;7.30;;;;;;;7.22;69.08;100091.67;2083822;85;31112;-63
2022/05/23 02:21:32;;;;;;;8.23;6.72;;;;;;;7.20;69.23;100089.53;2083607;85;33332;-63
2022/05/23 02:24:34;;;;;;;12.13;7.42;;;;;;;7.19;69.29;100089.13;2083516;85;30131;-62
2022/05/23 02:27:35;;;;;;;9.75;7.00;;;;;;;7.17;69.24;100091.86;2083949;84;27645;-62
2022/05/23 02:30:37;;;;;;;12.65;7.03;;;;;;;7.14;69.29;100084.84;2083970;85;29077;-64
2022/05/23 02:33:39;;;;;;;11.57;6.60;;;;;;;7.13;69.31;100080.91;2083069;85;32269;-63
2022/05/23 02:36:41;;;;;;;10.25;6.83;;;;;;;7.11;69.48;100091.64;2083807;85;33323;-64
2022/05/23 02:39:43;;;;;;;14.68;8.63;;;;;;;7.10;69.47;100091.23;2083408;85;30473;-63
2022/05/23 02:42:45;;;;;;;12.25;7.75;;;;;;;7.10;69.63;100097.01;2083638;85;27700;-62
2022/05/23 02:45:49;;;;;;;16.90;8.65;;;;;;;7.09;69.81;100093.94;2083498;85;29888;-63
2022/05/23 02:48:50;;;;;;;12.30;8.50;;;;;;;7.11;69.77;100092.09;2058750;85;30876;-63
2022/05/23 02:51:53;;;;;;;12.65;9.35;;;;;;;7.13;69.90;100085.76;2071052;85;34184;-63
2022/05/23 02:54:54;;;;;;;13.98;9.20;;;;;;;7.13;70.02;100088.91;2049511;86;30145;-64
2022/05/23 02:57:56;;;;;;;12.70;8.05;;;;;;;7.15;70.02;100095.05;2048975;86;27632;-62
2022/05/23 03:00:58;;;;;;;13.50;9.05;;;;;;;7.18;70.10;100088.27;2049125;85;29904;-63
2022/05/23 03:04:00;;;;;;;11.90;8.78;;;;;;;7.20;70.02;100085.05;2014144;88;31049;-63
2022/05/23 03:07:02;;;;;;;19.20;9.53;;;;;;;7.23;70.03;100084.09;2064261;86;33041;-63
2022/05/23 03:10:05;;;;;;;12.37;8.50;;;;;;;7.27;70.18;100084.37;2063904;86;29144;-66
2022/05/23 03:13:08;;;;;;;10.48;8.38;;;;;;;7.32;70.08;100089.52;2063852;86;27748;-67
2022/05/23 03:16:13;;;;;;;14.03;9.25;;;;;;;7.36;70.03;100085.81;2063865;86;28648;-66
2022/05/23 03:19:14;;;;;;;14.28;9.88;;;;;;;7.41;70.16;100084.69;2048827;86;31061;-66
2022/05/23 03:28:57;;;;;;;13.40;9.18;;;;;;;7.64;70.51;100095.34;2083422;84;27694;-66
2022/05/23 03:31:58;;;;;;;12.20;8.98;;;;;;;7.74;70.58;100094.03;2083351;85;28707;-66
2022/05/23 03:35:01;;;;;;;10.70;8.13;;;;;;;7.84;70.55;100098.52;2083454;85;31886;-66
2022/05/23 03:38:03;;;;;;;10.85;8.28;;;;;;;7.93;70.40;100096.81;2083360;85;33579;-65
2022/05/23 03:41:09;;;;;;;13.53;8.58;;;;;;;8.03;70.29;100094.59;2083446;85;29412;-66
2022/05/23 03:44:10;;;;;;;11.38;8.80;;;;;;;8.12;70.28;100096.89;2083438;85;27700;-66
2022/05/23 03:47:12;;;;;;;12.70;8.98;;;;;;;8.20;70.25;100102.75;2083466;85;28623;-65
2022/05/23 03:50:14;;;;;;;11.10;8.53;;;;;;;8.31;70.17;100110.78;2083431;85;31196;-65
2022/05/23 03:53:16;;;;;;;15.18;8.18;;;;;;;8.40;70.26;100117.04;2083549;85;32953;-65
2022/05/23 03:56:17;;;;;;;12.40;8.98;;;;;;;8.47;70.20;100116.30;2083212;85;29441;-66
2022/05/23 03:59:19;;;;;;;14.50;10.68;;;;;;;8.58;70.24;100126.55;2083596;85;27792;-65
2022/05/23 04:02:22;;;;;;;13.55;9.48;;;;;;;8.68;70.37;100114.99;2083328;85;29531;-66
2022/05/23 04:05:25;;;;;;;16.77;10.13;;;;;;;8.79;70.59;100112.69;2083280;85;31103;-66
2022/05/23 04:08:27;;;;;;;15.18;11.73;;;;;;;8.90;70.54;100117.09;2083035;85;34190;-66
2022/05/23 04:11:29;;;;;;;14.78;11.40;;;;;;;9.02;70.63;100117.46;2083357;85;30249;-64
2022/05/23 04:14:30;;;;;;;18.07;11.97;;;;;;;9.14;70.61;100123.56;2083389;85;27609;-65
2022/05/23 04:17:32;;;;;;;17.52;10.85;;;;;;;9.24;70.65;100114.20;2083295;85;28850;-64
2022/05/23 04:20:34;;;;;;;15.08;10.70;;;;;;;9.37;70.73;100114.45;2083344;85;31024;-65
2022/05/23 04:23:35;;;;;;;15.32;9.95;;;;;;;9.49;70.75;100117.02;2083097;85;32942;-64
2022/05/23 04:26:37;;;;;;;16.97;10.30;;;;;;;9.61;70.70;100124.05;2083420;85;28817;-64
2022/05/23 04:29:39;;;;;;;13.05;10.03;;;;;;;9.75;70.64;100127.39;2083168;85;27733;-64
2022/05/23 04:36:01;;;;;;;15.78;9.10;;;;;;;10.18;70.83;100129.25;2083372;85;31073;-65
2022/05/23 04:39:02;;;;;;;10.50;8.88;;;;;;;11.36;71.61;100136.48;2083233;85;32962;-65
2022/05/23 04:42:05;;;;;;;13.95;8.55;;;;;;;12.82;70.83;100134.30;2083259;85;29322;-65
2022/05/23 04:45:09;;;;;;;9.90;8.18;;;;;;;14.26;69.65;100138.55;2083488;85;27681;-65
2022/05/23 04:51:31;;;;;;;10.72;7.17;;;;;;;17.03;65.55;100130.18;2083655;85;32070;-65
2022/05/23 04:54:33;;;;;;;8.48;6.15;;;;;;;18.37;63.65;100120.16;2083629;85;33724;-65
2022/05/23 04:57:35;;;;;;;10.95;6.62;;;;;;;19.43;60.82;100118.19;2083674;85;29362;-66
2022/05/23 05:00:39;;;;;;;10.08;6.58;;;;;;;20.22;59.52;100121.52;2083876;85;27704;-65
2022/05/23 05:03:41;;;;;;;11.40;6.47;;;;;;;21.10;58.23;100118.17;2083813;85;29607;-66
2022/05/23 05:06:44;;;;;;;6.95;6.22;;;;;;;21.82;56.71;100106.61;2083652;85;31101;-65
2022/05/23 05:09:46;;;;;;;7.83;5.30;;;;;;;22.65;55.32;100106.52;2083448;85;33092;-65
2022/05/23 05:12:48;;;;;;;8.18;5.50;;;;;;;23.08;52.87;100113.45;2083739;85;30099;-66
2022/05/23 05:15:50;;;;;;;9.03;5.90;;;;;;;23.73;52.30;100117.50;2083533;85;27690;-66
2022/05/23 05:18:52;;;;;;;9.18;6.10;;;;;;;24.23;50.32;100115.71;2083390;85;28613;-65
2022/05/23 05:21:54;;;;;;;7.37;5.75;;;;;;;24.87;49.61;100113.64;2083307;85;31004;-66
2022/05/23 05:24:56;;;;;;;6.45;4.92;;;;;;;25.49;47.99;100107.97;2082522;85;33840;-65
2022/05/23 05:27:57;;;;;;;7.28;5.40;;;;;;;25.75;45.28;100106.28;2083278;85;29385;-65
2022/05/23 05:31:07;;;;;;;6.65;5.62;;;;;;;25.73;44.34;100107.52;2085881;85;27591;-65
2022/05/23 05:34:20;;;;;;;5.58;4.70;;;;;;;26.11;44.25;100109.48;2086876;85;29551;-65
2022/05/23 05:37:27;;;;;;;6.50;4.58;;;;;;;26.27;42.73;100108.02;2086076;85;30997;-64
2022/05/23 05:40:32;;;;;;;5.95;4.45;;;;;;;26.06;41.03;100105.39;2087037;85;33800;-65
2022/05/23 05:43:38;;;;;;;6.58;4.50;;;;;;;25.87;39.31;100102.62;2086911;85;30147;-65
2022/05/23 05:46:47;;;;;;;5.10;4.05;;;;;;;25.49;39.04;100098.36;2087090;85;27720;-64
2022/05/23 05:49:53;;;;;;;5.30;4.47;;;;;;;25.41;39.30;100105.25;2086876;85;28734;-66
2022/05/23 05:52:58;;;;;;;5.42;4.90;;;;;;;25.45;39.03;100102.53;2086808;85;31185;-66
2022/05/23 05:56:01;;;;;;;8.30;4.58;;;;;;;25.65;38.31;100094.70;2071317;85;33833;-65
2022/05/23 05:59:03;;;;;;;4.35;3.92;;;;;;;25.82;38.16;100091.86;2087169;84;30146;-65
2022/05/23 06:02:07;;;;;;;5.30;3.72;;;;;;;26.10;37.32;100096.30;2087150;85;27825;-66
2022/05/23 06:05:09;;;;;;;6.00;4.20;;;;;;;26.46;36.19;100093.45;2087253;84;28658;-65
2022/05/23 06:11:32;;;;;;;5.67;3.92;;;;;;;27.19;35.95;100088.75;2086990;84;33913;-65
2022/05/23 06:14:34;;;;;;;6.53;3.67;;;;;;;27.85;35.98;100086.52;2087065;84;29324;-65
2022/05/23 06:17:42;;;;;;;4.22;3.42;;;;;;;28.52;35.69;100080.28;2086961;84;27746;-65
2022/05/23 06:20:44;;;;;;;5.28;3.87;;;;;;;29.08;34.26;100079.42;2086981;85;29328;-65
2022/05/23 06:23:47;;;;;;;5.92;3.87;;;;;;;29.24;31.91;100079.62;2086701;84;31053;-65
2022/05/23 06:26:49;;;;;;;6.65;4.20;;;;;;;29.10;32.96;100069.03;2086875;85;33775;-65
2022/05/23 06:29:51;;;;;;;6.58;3.67;;;;;;;29.35;33.07;100074.59;2086213;84;29473;-65
2022/05/23 06:32:53;;;;;;;6.22;3.42;;;;;;;29.65;31.79;100065.48;2083467;85;27512;-65
2022/05/23 06:35:55;;;;;;;4.42;3.40;;;;;;;29.94;31.72;100073.08;2083301;85;29523;-65
2022/05/23 06:38:57;;;;;;;6.05;3.10;;;;;;;30.21;31.24;100064.84;2083353;85;31063;-65
2022/05/23 06:41:59;;;;;;;5.15;2.98;;;;;;;30.07;30.53;100071.42;2083351;85;32960;-66
2022/05/23 06:45:02;;;;;;;109.03;11.63;;;;;;;30.02;29.96;100062.39;2083394;85;29584;-65
2022/05/23 06:48:04;;;;;;;4.50;2.77;;;;;;;30.19;30.14;100064.74;2083623;84;27685;-66
2022/05/23 06:51:07;;;;;;;3.25;2.45;;;;;;;30.19;30.14;100064.74;2082978;85;29545;-65
2022/05/23 06:54:09;;;;;;;6.30;3.15;;;;;;;30.66;28.22;100058.69;2076127;85;31005;-66
2022/05/23 06:57:11;;;;;;;6.25;3.40;;;;;;;30.72;28.46;100056.97;2083244;85;32971;-65
2022/05/23 07:00:15;;;;;;;6.78;2.70;;;;;;;30.82;27.61;100058.78;2083235;85;30104;-65
2022/05/23 07:03:17;;;;;;;4.83;2.90;;;;;;;30.83;27.76;100054.09;2083482;85;27771;-65
2022/05/23 07:13:01;;;;;;;3.85;2.47;;;;;;;31.02;26.84;100049.04;2083145;85;33632;-65
2022/05/23 07:16:05;;;;;;;3.27;2.70;;;;;;;31.09;27.13;100037.95;2083376;85;29327;-66
2022/05/23 07:19:07;;;;;;;;;;;;;;;31.32;26.81;100032.47;2085877;85;27704;-65
2022/05/23 07:22:10;;;;;;;6.15;2.62;;;;;;;31.34;26.08;100024.80;2108673;84;28689;-66
2022/05/23 07:25:19;;;;;;;5.00;2.55;;;;;;;31.29;25.87;100023.21;2084625;85;31181;-66
2022/05/23 07:28:21;;;;;;;5.00;2.75;;;;;;;30.79;25.53;100027.41;2084228;85;33110;-65
2022/05/23 07:31:23;;;;;;;2.95;2.62;;;;;;;30.51;25.92;100013.81;2100935;83;29310;-66
2022/05/23 07:34:25;;;;;;;3.37;2.90;;;;;;;30.36;25.03;100012.67;2110642;84;27535;-65
2022/05/23 07:37:28;;;;;;;3.37;2.70;;;;;;;30.40;25.65;100012.02;2110439;84;28630;-66
2022/05/23 07:40:29;;;;;;;5.55;3.10;;;;;;;30.49;26.02;100012.66;2035909;86;31835;-66
2022/05/23 07:43:35;;;;;;;3.72;2.55;;;;;;;30.71;25.75;100009.64;2036050;86;32944;-65
2022/05/23 07:46:37;;;;;;;3.90;2.35;;;;;;;30.42;25.24;100006.27;2035970;86;30089;-66
2022/05/23 07:49:39;;;;;;;8.70;2.58;;;;;;;30.17;24.82;100001.41;2035986;86;27690;-66
2022/05/23 08:00:30;;;;;;;5.33;2.50;;;;;;;30.05;24.80;100001.20;2033034;86;29579;-66
2022/05/23 08:02:25;;;;;;;6.47;1.98;;;;;;;30.03;25.11;99990.05;2103885;84;30150;-66
2022/05/23 08:05:27;;;;;;;2.25;2.02;;;;;;;29.93;24.25;99989.89;2047364;87;27635;-66
2022/05/23 08:08:29;;;;;;;3.83;2.08;;;;;;;29.57;24.75;99995.25;2047321;87;29508;-66
2022/05/23 08:11:31;;;;;;;2.47;1.65;;;;;;;29.49;24.59;99996.30;2047264;87;31068;-67
2022/05/23 08:14:33;;;;;;;3.65;1.70;;;;;;;29.03;24.37;99990.07;2022668;87;32956;-66
2022/05/23 08:17:36;;;;;;;5.03;1.98;;;;;;;28.89;24.70;99978.98;2047187;87;28739;-67
2022/05/23 08:20:43;;;;;;;3.45;1.50;;;;;;;28.98;24.58;99977.41;2022377;87;27700;-67
2022/05/23 08:23:46;;;;;;;2.12;1.85;;;;;;;28.96;24.87;99974.33;2031443;86;29526;-67
2022/05/23 08:26:48;;;;;;;2.50;1.65;;;;;;;29.20;25.59;99979.55;2047460;86;31073;-65
2022/05/23 08:29:52;;;;;;;3.87;1.80;;;;;;;29.45;25.20;99986.76;2047705;84;33012;-66
2022/05/23 08:32:54;;;;;;;;;;;;;;;29.48;25.14;99984.10;2085903;85;30071;-67
2022/05/23 08:35:56;;;;;;;5.35;1.77;;;;;;;29.62;25.30;99973.95;2065816;85;27742;-67
2022/05/23 08:38:58;;;;;;;3.00;1.82;;;;;;;29.61;24.40;99975.84;2083707;85;28618;-66
2022/05/23 08:42:22;;;;;;;3.00;1.40;;;;;;;29.58;25.08;99969.35;2083372;85;31034;-67
2022/05/23 08:45:34;;;;;;;2.47;1.75;;;;;;;29.51;24.59;99970.72;2083183;85;34095;-66
2022/05/23 08:49:02;;;;;;;4.37;1.60;;;;;;;29.38;24.45;99967.94;2080599;85;29357;-66
2022/05/23 08:52:13;;;;;;;1.98;1.55;;;;;;;29.11;24.57;99962.32;2083848;85;27657;-67
2022/05/23 08:55:29;;;;;;;4.72;1.70;;;;;;;28.74;24.69;99961.73;2083717;85;28608;-66
2022/05/23 08:58:40;;;;;;;5.10;1.87;;;;;;;28.72;25.24;99970.16;2066014;85;27801;-66
2022/05/23 09:01:48;;;;;;;1.90;1.65;;;;;;;28.57;25.19;99950.14;2083309;85;32970;-67
2022/05/23 09:05:02;;;;;;;2.10;1.85;;;;;;;28.46;24.77;99966.75;2075547;85;29331;-67
2022/05/23 09:08:14;;;;;;;5.90;1.55;;;;;;;28.12;24.72;99956.85;2082985;84;27769;-67
2022/05/23 09:11:40;;;;;;;2.40;1.42;;;;;;;27.80;25.24;99943.97;2082011;85;28740;-68
2022/05/23 09:14:42;;;;;;;6.92;1.72;;;;;;;27.69;25.36;99953.60;2083369;85;31242;-67
2022/05/23 09:17:48;;;;;;;1.92;1.65;;;;;;;27.64;26.02;99940.11;2083427;85;32986;-67
2022/05/23 09:20:52;;;;;;;2.33;1.30;;;;;;;27.68;25.80;99941.42;2083474;85;30130;-66
2022/05/23 09:23:55;;;;;;;1.60;1.50;;;;;;;27.64;25.71;99932.69;2082918;85;27715;-67
2022/05/23 09:27:00;;;;;;;2.70;1.80;;;;;;;27.72;25.82;99922.94;2083217;85;28619;-66
2022/05/23 09:30:17;;;;;;;1.95;1.30;;;;;;;27.67;25.83;99913.58;2055594;85;31039;-66
2022/05/23 09:33:21;;;;;;;1.70;1.30;;;;;;;27.35;25.83;99913.03;2082748;85;33031;-65
2022/05/23 09:36:38;;;;;;;2.87;1.52;;;;;;;27.03;25.79;99918.81;2083280;85;30032;-67
2022/05/23 09:39:45;;;;;;;2.20;1.27;;;;;;;26.83;26.22;99913.09;2082889;85;27744;-66
2022/05/23 09:49:46;;;;;;;3.30;1.45;;;;;;;26.10;25.58;99909.61;2082877;85;33170;-66
2022/05/23 09:52:50;;;;;;;9.05;1.62;;;;;;;25.33;26.41;99900.48;2083027;85;30122;-66
2022/05/23 09:55:53;;;;;;;1.72;1.40;;;;;;;25.06;27.21;99904.10;2083276;85;27709;-66
2022/05/23 09:58:55;;;;;;;1.55;1.40;;;;;;;24.72;26.63;99901.20;2083106;85;28698;-66
2022/05/23 10:01:58;;;;;;;1.30;1.20;;;;;;;24.10;26.73;99894.53;2083177;85;31715;-66
2022/05/23 10:05:01;;;;;;;3.27;1.45;;;;;;;23.64;27.19;99899.20;2055583;85;33845;-66
2022/05/23 10:08:13;;;;;;;4.05;1.80;;;;;;;23.45;28.09;99896.27;2056005;85;29339;-66
2022/05/23 10:11:31;;;;;;;1.95;1.20;;;;;;;23.35;28.54;99890.47;2083339;85;27746;-66
2022/05/23 10:14:47;;;;;;;2.15;1.37;;;;;;;23.28;28.78;99885.33;2083417;85;29683;-66
2022/05/23 10:18:05;;;;;;;2.27;1.52;;;;;;;23.05;29.09;99868.70;1972346;90;31094;-67
2022/05/23 10:21:36;;;;;;;1.60;1.40;;;;;;;22.89;29.65;99875.84;1968458;90;33136;-65
2022/05/23 10:24:40;;;;;;;1.60;1.50;;;;;;;22.97;30.11;99872.80;1942057;91;29354;-65
2022/05/23 10:27:57;;;;;;;3.52;1.60;;;;;;;22.83;29.98;99877.02;1950967;90;27776;-67
2022/05/23 10:31:09;;;;;;;2.15;1.52;;;;;;;22.62;29.60;99867.40;1968045;87;29345;-66
2022/05/23 10:34:50;;;;;;;1.70;1.45;;;;;;;22.20;29.93;99861.41;1954828;91;30918;-68
2022/05/23 10:42:07;;;;;;;1.77;1.40;;;;;;;21.97;30.55;99868.77;1954826;91;33645;-68
2022/05/23 10:45:23;;;;;;;3.33;1.87;;;;;;;21.86;30.92;99867.16;1954638;91;27837;-67
2022/05/23 10:48:42;;;;;;;5.22;2.05;;;;;;;21.84;30.65;99871.43;1954827;91;28676;-63
2022/05/23 10:52:01;;;;;;;8.15;1.75;;;;;;;21.70;30.58;99865.20;1960212;90;31058;-66
2022/05/23 10:55:17;;;;;;;1.95;1.45;;;;;;;21.54;30.98;99847.68;1998720;87;32994;-68
2022/05/23 10:58:36;;;;;;;5.62;1.95;;;;;;;21.41;31.38;99841.80;2104227;83;29327;-66
2022/05/23 11:02:10;;;;;;;2.35;1.47;;;;;;;21.38;31.79;99845.67;2047449;85;27735;-68
2022/05/23 11:05:49;;;;;;;6.23;2.40;;;;;;;21.35;31.71;99834.23;2047558;87;28765;-68
2022/05/23 11:09:28;;;;;;;4.65;1.72;;;;;;;21.40;32.11;99833.27;2047464;87;31047;-68
2022/05/23 11:13:16;;;;;;;4.08;1.52;;;;;;;21.44;31.98;99826.98;2046960;87;33852;-67
2022/05/23 11:16:32;;;;;;;2.35;1.65;;;;;;;21.38;31.65;99829.31;2047637;87;29395;-67
2022/05/23 11:20:03;;;;;;;3.25;1.30;;;;;;;21.23;31.67;99825.45;2047455;86;27663;-65
2022/05/23 11:23:12;;;;;;;10.18;1.75;;;;;;;21.19;31.95;99822.19;1927442;92;29397;-67
2022/05/23 11:26:28;;;;;;;2.20;1.40;;;;;;;21.21;32.10;99817.45;1927663;92;31115;-66
2022/05/23 11:36:24;;;;;;;3.62;1.65;;;;;;;21.24;32.47;99806.23;1965551;90;27706;-67
2022/05/23 11:39:58;;;;;;;4.67;1.98;;;;;;;21.26;32.79;99801.98;1965410;90;28508;-67
2022/05/23 11:43:11;;;;;;;2.60;2.05;;;;;;;21.34;32.49;99797.10;1965271;90;31348;-67
2022/05/23 11:46:14;;;;;;;3.62;1.40;;;;;;;21.40;32.64;99801.41;1963144;90;33669;-67
2022/05/23 11:49:43;;;;;;;2.08;1.70;;;;;;;21.50;32.65;99791.77;1965481;90;30175;-67
2022/05/23 11:53:10;;;;;;;5.83;1.90;;;;;;;21.60;32.62;99777.16;1983357;89;27809;-67
2022/05/23 11:56:36;;;;;;;1.65;1.55;;;;;;;21.65;32.35;99787.12;1983274;89;28668;-67
2022/05/23 11:59:48;;;;;;;3.55;1.80;;;;;;;21.63;32.31;99784.56;2042190;85;31182;-67
2022/05/23 12:03:13;;;;;;;2.62;1.57;;;;;;;21.59;32.33;99784.50;2087320;85;33094;-67
2022/05/23 12:06:20;;;;;;;1.57;1.47;;;;;;;21.59;32.24;99781.77;2136269;81;30271;-67
2022/05/23 12:09:35;;;;;;;2.33;1.40;;;;;;;21.66;32.34;99771.98;2136592;83;27791;-68
2022/05/23 12:12:54;;;;;;;;;;;;;;;21.78;32.37;99775.78;2139090;83;29344;-68
2022/05/23 12:15:58;;;;;;;3.02;1.40;;;;;;;21.89;32.25;99767.31;2136473;83;31831;-65
2022/05/23 12:19:14;;;;;;;2.67;1.80;;;;;;;21.90;32.27;99755.38;2136459;82;33022;-66
2022/05/23 12:22:32;;;;;;;2.95;1.65;;;;;;;21.95;32.29;99748.06;2141689;83;30198;-67
2022/05/23 12:25:34;;;;;;;2.20;1.75;;;;;;;22.13;32.47;99733.82;2142886;83;27725;-67
2022/05/23 12:28:57;;;;;;;4.47;3.12;;;;;;;22.34;32.65;99734.41;2142877;83;28720;-67
2022/05/23 12:32:26;;;;;;;3.52;1.82;;;;;;;22.52;31.76;99732.93;2137433;81;31126;-68
2022/05/23 12:35:44;;;;;;;2.60;1.60;;;;;;;22.69;31.28;99728.33;2071165;86;33811;-67
2022/05/23 12:39:23;;;;;;;1.50;1.40;;;;;;;22.76;31.44;99732.94;2049247;86;29390;-67
2022/05/23 12:43:08;;;;;;;2.15;1.20;;;;;;;22.80;30.82;99727.14;2049408;86;27772;-68
2022/05/23 12:46:45;;;;;;;3.37;1.30;;;;;;;22.79;30.74;99719.98;2049469;86;28734;-68
2022/05/23 12:50:35;;;;;;;1.27;1.05;;;;;;;22.91;30.80;99709.91;2049290;86;31765;-67
2022/05/23 12:54:03;;;;;;;1.82;1.30;;;;;;;23.08;30.47;99703.06;2082428;84;33782;-68
2022/05/23 12:57:39;;;;;;;4.00;1.30;;;;;;;23.29;30.80;99694.34;2083692;85;30096;-69
2022/05/23 13:00:59;;;;;;;6.62;1.70;;;;;;;23.57;30.47;99687.11;2083545;85;27726;-68
2022/05/23 13:04:15;;;;;;;4.78;1.42;;;;;;;23.78;30.46;99679.67;2082934;85;30098;-66
2022/05/23 13:07:31;;;;;;;2.42;1.40;;;;;;;24.09;30.16;99676.13;2082756;85;32067;-67
2022/05/23 13:10:39;;;;;;;3.65;1.82;;;;;;;24.21;29.44;99673.83;2083309;85;33628;-67
2022/05/23 13:13:45;;;;;;;2.42;1.35;;;;;;;24.25;29.77;99666.10;2082834;85;29344;-67
2022/05/23 13:16:55;;;;;;;1.47;1.27;;;;;;;24.32;28.87;99660.75;2083276;85;27709;-67
2022/05/23 13:23:24;;;;;;;3.20;1.55;;;;;;;24.11;28.34;99655.41;2067240;85;31115;-65
2022/05/23 13:26:28;;;;;;;3.20;1.47;;;;;;;24.00;28.56;99644.34;2055947;85;32961;-67
2022/05/23 13:29:32;;;;;;;;;;;;;;;23.96;28.01;99644.36;2085980;85;29347;-66
2022/05/23 13:32:35;;;;;;;2.60;2.30;;;;;;;23.88;28.77;99645.77;2056093;84;27772;-67
2022/05/23 13:35:37;;;;;;;3.92;1.65;;;;;;;23.93;28.82;99648.29;2055723;85;28760;-67
2022/05/23 13:38:43;;;;;;;2.70;1.80;;;;;;;23.89;28.30;99641.50;2083029;85;31071;-67
2022/05/23 13:41:44;;;;;;;1.53;1.23;;;;;;;23.88;28.40;99635.69;2083029;85;33038;-67
2022/05/23 13:44:49;;;;;;;1.55;1.40;;;;;;;23.83;28.31;99641.67;2083493;85;30224;-68
2022/05/23 13:47:59;;;;;;;7.25;1.37;;;;;;;23.77;28.59;99632.84;2083795;85;27681;-66
2022/05/23 13:51:06;;;;;;;3.45;1.30;;;;;;;23.84;28.83;99628.87;2066015;85;28829;-65
2022/05/23 13:54:34;;;;;;;4.12;1.00;;;;;;;23.98;28.80;99625.92;2083384;85;31854;-65
2022/05/23 13:57:47;;;;;;;2.72;1.27;;;;;;;24.02;27.89;99626.41;2083223;84;33827;-66
2022/05/23 14:00:57;;;;;;;2.10;1.20;;;;;;;24.02;27.35;99615.45;2083697;85;29342;-67
2022/05/23 14:04:09;;;;;;;2.90;1.50;;;;;;;24.10;28.21;99614.02;2082534;85;27600;-65
2022/05/23 14:07:19;;;;;;;1.77;1.40;;;;;;;24.20;27.98;99620.13;2083663;85;28662;-65
2022/05/23 14:10:28;;;;;;;2.10;1.30;;;;;;;24.35;28.27;99613.32;2083436;85;32154;-68
2022/05/23 14:13:32;;;;;;;1.07;0.93;;;;;;;24.60;28.10;99610.89;2083063;85;33235;-65
2022/05/23 14:17:08;;;;;;;1.35;1.22;;;;;;;24.70;26.89;99608.27;2083243;85;29547;-66
2022/05/23 14:20:39;;;;;;;1.62;1.30;;;;;;;24.67;27.43;99600.91;2065659;85;27759;-66
2022/05/23 14:23:42;;;;;;;1.98;1.10;;;;;;;24.66;27.23;99597.84;2082959;85;29567;-65
2022/05/23 14:26:46;;;;;;;;;;;;;;;24.65;26.95;99601.61;2044341;85;31834;-67
2022/05/23 14:30:11;;;;;;;1.90;1.20;;;;;;;24.66;27.16;99609.63;2081036;85;34705;-67
2022/05/23 14:33:22;;;;;;;1.75;1.35;;;;;;;24.64;26.97;99614.47;2084729;84;29376;-66
2022/05/23 14:36:26;;;;;;;3.27;1.37;;;;;;;24.54;26.78;99602.91;2087083;84;27735;-68
2022/05/23 14:39:30;;;;;;;1.45;1.22;;;;;;;24.44;26.47;99608.63;2087012;85;29279;-67
2022/05/23 14:42:40;;;;;;;4.00;1.15;;;;;;;24.30;26.30;99608.06;2087047;84;34796;-66
2022/05/23 14:46:00;;;;;;;2.45;1.10;;;;;;;24.11;26.64;99605.65;2056110;85;33934;-67
2022/05/23 14:49:20;;;;;;;2.15;1.00;;;;;;;24.01;26.60;99601.44;2086940;85;30044;-66
2022/05/23 14:52:26;;;;;;;6.00;1.12;;;;;;;23.82;26.47;99599.47;2087130;85;27792;-66
2022/05/23 14:55:28;;;;;;;6.00;1.17;;;;;;;23.55;26.63;99593.97;2086612;85;28663;-65
2022/05/23 15:01:53;;;;;;;3.52;1.62;;;;;;;23.17;26.59;99585.88;2086650;85;34122;-66
2022/05/23 15:04:59;;;;;;;1.67;0.90;;;;;;;23.06;26.94;99581.67;2087004;85;29316;-66
2022/05/23 15:08:06;;;;;;;1.50;1.00;;;;;;;22.99;27.26;99590.22;2087226;84;27731;-66
2022/05/23 15:11:30;;;;;;;6.83;1.30;;;;;;;22.91;27.53;99586.16;2087081;84;28659;-67
2022/05/23 15:14:52;;;;;;;2.85;1.20;;;;;;;22.86;27.85;99583.09;2086909;84;31320;-67
2022/05/23 15:17:54;;;;;;;1.40;0.82;;;;;;;22.79;27.62;99576.60;2094881;85;33091;-67
2022/05/23 15:20:58;;;;;;;5.28;1.57;;;;;;;22.64;27.58;99573.75;2094855;85;30518;-66
2022/05/23 15:24:00;;;;;;;1.70;1.10;;;;;;;22.58;27.77;99570.67;2095310;85;27737;-66
2022/05/23 15:27:02;;;;;;;2.05;1.15;;;;;;;22.57;27.65;99566.76;2095224;85;29445;-66
2022/05/23 15:30:09;;;;;;;6.37;1.20;;;;;;;22.56;27.74;99565.05;2095165;85;31983;-66
2022/05/23 15:33:11;;;;;;;6.12;1.32;;;;;;;22.58;27.63;99546.10;2094668;83;33141;-66
2022/05/23 15:36:13;;;;;;;3.90;1.87;;;;;;;22.60;27.95;99546.78;2095226;85;30190;-67
2022/05/23 15:39:15;;;;;;;2.25;1.20;;;;;;;22.61;27.49;99551.22;2057319;86;27683;-67
2022/05/23 15:42:28;;;;;;;8.50;2.02;;;;;;;22.54;27.43;99539.27;2095251;85;28711;-66
2022/05/23 15:45:32;;;;;;;3.80;1.70;;;;;;;22.53;27.68;99545.76;2095332;85;32878;-67
2022/05/23 15:48:35;;;;;;;;;;;;;;;22.56;27.69;99538.59;2059371;86;33780;-66